createdAt,value
2018-07-25T00:02:25.182Z,16.90
2018-07-25T00:04:52.690Z,16.90
2018-07-25T00:07:20.499Z,16.90
2018-07-25T00:09:48.438Z,16.80
2018-07-25T00:12:16.314Z,16.80
2018-07-25T00:14:44.472Z,16.80
2018-07-25T00:17:12.001Z,16.90
2018-07-25T00:19:39.922Z,16.90
2018-07-25T00:22:07.977Z,16.90
2018-07-25T00:27:04.446Z,16.70
2018-07-25T00:29:31.972Z,16.70
2018-07-25T00:32:00.402Z,16.70
2018-07-25T00:34:27.914Z,16.80
2018-07-25T00:36:55.411Z,16.70
2018-07-25T00:39:23.204Z,16.70
2018-07-25T00:41:50.700Z,16.70
2018-07-25T00:44:18.508Z,16.70
2018-07-25T00:46:46.051Z,16.70
2018-07-25T00:49:14.868Z,16.70
2018-07-25T00:51:42.386Z,16.70
2018-07-25T00:54:09.892Z,16.70
2018-07-25T00:56:37.417Z,16.70
2018-07-25T00:59:05.750Z,16.70
2018-07-25T01:01:33.254Z,16.70
2018-07-25T01:04:00.782Z,16.60
2018-07-25T01:06:28.373Z,16.60
2018-07-25T01:08:56.470Z,16.60
2018-07-25T01:11:24.590Z,16.60
2018-07-25T01:16:21.110Z,16.60
2018-07-25T01:18:48.596Z,16.60
2018-07-25T01:21:16.473Z,16.60
2018-07-25T01:23:44.562Z,16.60
2018-07-25T01:26:12.646Z,16.60
2018-07-25T01:31:08.070Z,16.60
2018-07-25T01:33:35.550Z,16.60
2018-07-25T01:36:03.103Z,16.60
2018-07-25T01:38:30.735Z,16.60
2018-07-25T01:40:58.290Z,16.60
2018-07-25T01:43:26.465Z,16.60
2018-07-25T01:45:54.033Z,16.50
2018-07-25T01:48:21.942Z,16.50
2018-07-25T01:50:49.912Z,16.60
2018-07-25T01:53:17.427Z,16.50
2018-07-25T01:55:45.286Z,16.60
2018-07-25T01:58:13.537Z,16.50
2018-07-25T02:00:41.326Z,16.50
2018-07-25T02:03:08.840Z,16.50
2018-07-25T02:05:36.398Z,16.50
2018-07-25T02:08:04.515Z,16.50
2018-07-25T02:10:36.569Z,16.50
2018-07-25T02:13:05.269Z,16.50
2018-07-25T02:15:32.809Z,16.40
2018-07-25T02:18:00.332Z,16.40
2018-07-25T02:20:27.847Z,16.40
2018-07-25T02:22:55.723Z,16.40
2018-07-25T02:25:23.724Z,16.40
2018-07-25T02:27:52.771Z,16.50
2018-07-25T02:30:20.923Z,16.40
2018-07-25T02:32:48.446Z,16.40
2018-07-25T02:35:15.955Z,16.40
2018-07-25T02:37:43.831Z,16.40
2018-07-25T02:40:11.324Z,16.50
2018-07-25T02:42:38.943Z,16.40
2018-07-25T02:45:06.944Z,16.40
2018-07-25T02:47:34.856Z,16.40
2018-07-25T02:50:02.803Z,16.40
2018-07-25T02:52:30.614Z,16.40
2018-07-25T02:54:58.578Z,16.40
2018-07-25T02:57:26.118Z,16.30
2018-07-25T02:59:54.182Z,16.30
2018-07-25T03:02:21.708Z,16.40
2018-07-25T03:04:49.860Z,16.30
2018-07-25T03:07:17.355Z,16.30
2018-07-25T03:09:45.129Z,16.30
2018-07-25T03:12:13.056Z,16.30
2018-07-25T03:14:40.606Z,16.30
2018-07-25T03:17:08.694Z,16.30
2018-07-25T03:19:36.294Z,16.30
2018-07-25T03:22:04.150Z,16.30
2018-07-25T03:24:32.412Z,16.30
2018-07-25T03:27:00.492Z,16.30
2018-07-25T03:29:27.993Z,16.30
2018-07-25T03:31:55.483Z,16.30
2018-07-25T03:34:23.059Z,16.20
2018-07-25T03:36:50.563Z,16.30
2018-07-25T03:39:18.143Z,16.30
2018-07-25T03:41:45.672Z,16.30
2018-07-25T03:44:13.943Z,16.30
2018-07-25T03:46:41.476Z,16.30
2018-07-25T03:49:09.587Z,16.30
2018-07-25T03:51:37.095Z,16.40
2018-07-25T03:54:05.207Z,16.30
2018-07-25T03:56:32.737Z,16.30
2018-07-25T03:59:00.259Z,16.30
2018-07-25T04:01:28.754Z,16.30
2018-07-25T04:03:56.952Z,16.30
2018-07-25T04:06:24.464Z,16.30
2018-07-25T04:08:52.351Z,16.50
2018-07-25T04:11:19.882Z,16.50
2018-07-25T04:13:47.912Z,16.50
2018-07-25T04:16:15.871Z,16.50
2018-07-25T04:18:43.394Z,16.60
2018-07-25T04:21:10.899Z,16.60
2018-07-25T04:23:38.856Z,16.60
2018-07-25T04:26:06.960Z,16.60
2018-07-25T04:28:34.823Z,16.60
2018-07-25T04:31:02.347Z,16.70
2018-07-25T04:33:29.915Z,16.80
2018-07-25T04:35:57.435Z,16.80
2018-07-25T04:38:25.002Z,16.90
2018-07-25T04:40:53.153Z,16.90
2018-07-25T04:43:20.664Z,17.00
2018-07-25T04:45:48.432Z,17.00
2018-07-25T04:48:16.464Z,17.10
2018-07-25T04:50:44.450Z,17.20
2018-07-25T04:53:12.356Z,17.20
2018-07-25T04:55:39.849Z,17.40
2018-07-25T04:58:07.362Z,17.50
2018-07-25T05:00:34.907Z,17.50
2018-07-25T05:03:02.422Z,17.60
2018-07-25T05:05:31.054Z,17.70
2018-07-25T05:07:59.050Z,17.80
2018-07-25T05:10:26.562Z,17.90
2018-07-25T05:12:54.522Z,17.90
2018-07-25T05:15:22.096Z,18.00
2018-07-25T05:17:49.604Z,18.10
2018-07-25T05:20:17.155Z,18.20
2018-07-25T05:22:45.496Z,18.20
2018-07-25T05:25:13.324Z,18.30
2018-07-25T05:27:41.192Z,18.40
2018-07-25T05:30:08.744Z,18.50
2018-07-25T05:32:36.270Z,18.50
2018-07-25T05:35:04.063Z,18.60
2018-07-25T05:42:27.334Z,18.80
2018-07-25T05:44:55.454Z,18.80
2018-07-25T05:47:23.433Z,18.90
2018-07-25T05:49:51.571Z,19.00
2018-07-25T05:52:19.138Z,19.00
2018-07-25T05:54:47.243Z,19.10
2018-07-25T05:57:14.729Z,19.20
2018-07-25T05:59:42.234Z,19.30
2018-07-25T06:02:10.127Z,19.40
2018-07-25T06:04:38.267Z,19.50
2018-07-25T06:07:06.310Z,19.60
2018-07-25T06:09:33.876Z,19.70
2018-07-25T06:12:02.148Z,19.80
2018-07-25T06:14:29.679Z,19.90
2018-07-25T06:16:57.223Z,19.90
2018-07-25T06:19:24.750Z,19.90
2018-07-25T06:21:52.814Z,20.00
2018-07-25T06:29:17.083Z,20.30
2018-07-25T06:31:44.578Z,20.40
2018-07-25T06:34:12.123Z,20.50
2018-07-25T06:36:40.592Z,20.60
2018-07-25T06:39:09.990Z,20.70
2018-07-25T06:41:38.547Z,20.80
2018-07-25T06:44:06.703Z,20.90
2018-07-25T06:46:34.531Z,20.90
2018-07-25T06:49:02.488Z,21.10
2018-07-25T06:51:30.000Z,21.10
2018-07-25T06:53:57.944Z,21.20
2018-07-25T06:56:25.455Z,21.30
2018-07-25T06:58:52.974Z,21.40
2018-07-25T07:01:21.315Z,21.40
2018-07-25T07:03:49.771Z,21.60
2018-07-25T07:06:17.312Z,21.70
2018-07-25T07:08:44.811Z,21.80
2018-07-25T07:11:12.849Z,21.90
2018-07-25T07:13:40.712Z,22.10
2018-07-25T07:16:08.243Z,22.20
2018-07-25T07:18:35.753Z,22.30
2018-07-25T07:21:03.315Z,22.30
2018-07-25T07:23:31.344Z,22.20
2018-07-25T07:25:59.920Z,22.20
2018-07-25T07:30:57.104Z,22.40
2018-07-25T07:33:25.072Z,22.40
2018-07-25T07:35:52.576Z,22.50
2018-07-25T07:38:20.078Z,22.50
2018-07-25T07:40:48.320Z,22.70
2018-07-25T07:43:16.323Z,22.90
2018-07-25T07:45:44.171Z,23.10
2018-07-25T07:48:11.795Z,23.20
2018-07-25T07:50:39.313Z,23.30
2018-07-25T07:53:06.939Z,23.40
2018-07-25T07:55:35.235Z,23.50
2018-07-25T07:58:02.820Z,23.40
2018-07-25T08:00:30.735Z,23.60
2018-07-25T08:02:59.123Z,23.70
2018-07-25T08:05:26.696Z,23.60
2018-07-25T08:07:54.211Z,23.50
2018-07-25T08:10:21.767Z,23.60
2018-07-25T08:12:49.787Z,23.60
2018-07-25T08:15:17.323Z,23.60
2018-07-25T08:17:44.924Z,23.60
2018-07-25T08:20:12.823Z,23.60
2018-07-25T08:22:40.712Z,23.70
2018-07-25T08:25:08.839Z,23.80
2018-07-25T08:27:36.723Z,23.90
2018-07-25T08:32:32.816Z,24.00
2018-07-25T08:35:00.832Z,24.00
2018-07-25T08:37:28.704Z,24.00
2018-07-25T08:39:56.616Z,24.10
2018-07-25T08:42:24.132Z,24.20
2018-07-25T08:44:52.048Z,24.30
2018-07-25T08:47:19.542Z,24.40
2018-07-25T08:49:47.107Z,24.50
2018-07-25T08:52:14.623Z,24.40
2018-07-25T08:54:42.875Z,24.50
2018-07-25T08:57:11.363Z,24.50
2018-07-25T08:59:38.912Z,24.90
2018-07-25T09:02:06.559Z,24.70
2018-07-25T09:04:34.120Z,24.80
2018-07-25T09:07:02.244Z,24.90
2018-07-25T09:09:29.834Z,24.90
2018-07-25T09:11:58.191Z,25.00
2018-07-25T09:16:53.648Z,25.20
2018-07-25T09:19:21.154Z,25.10
2018-07-25T09:21:49.003Z,25.20
2018-07-25T09:24:16.512Z,25.20
2018-07-25T09:26:44.502Z,25.20
2018-07-25T09:29:12.775Z,25.20
2018-07-25T09:39:07.231Z,25.50
2018-07-25T09:41:34.770Z,25.80
2018-07-25T09:44:02.810Z,25.80
2018-07-25T09:46:30.477Z,26.00
2018-07-25T09:48:59.010Z,26.00
2018-07-25T09:53:54.379Z,26.10
2018-07-25T09:56:22.581Z,26.20
2018-07-25T09:58:50.155Z,26.20
2018-07-25T10:01:17.657Z,26.30
2018-07-25T10:03:45.176Z,26.50
2018-07-25T10:06:13.431Z,26.60
2018-07-25T10:08:41.536Z,26.50
2018-07-25T10:11:09.105Z,26.50
2018-07-25T10:13:36.936Z,26.40
2018-07-25T10:16:04.843Z,26.30
2018-07-25T10:18:32.355Z,26.50
2018-07-25T10:25:56.114Z,26.60
2018-07-25T10:28:23.654Z,26.70
2018-07-25T10:30:51.216Z,26.60
2018-07-25T10:33:19.232Z,26.80
2018-07-25T10:35:47.144Z,26.90
2018-07-25T10:40:42.147Z,27.20
2018-07-25T10:43:10.269Z,27.20
2018-07-25T10:45:38.250Z,27.40
2018-07-25T10:48:05.858Z,27.50
2018-07-25T10:50:33.393Z,27.50
2018-07-25T10:53:01.633Z,27.70
2018-07-25T10:57:56.672Z,27.80
2018-07-25T11:00:24.228Z,27.50
2018-07-25T11:02:51.747Z,27.50
2018-07-25T11:05:19.737Z,27.60
2018-07-25T11:07:48.040Z,27.80
2018-07-25T11:12:43.733Z,27.70
2018-07-25T11:15:11.888Z,27.90
2018-07-25T11:17:39.440Z,28.00
2018-07-25T11:20:07.136Z,27.80
2018-07-25T11:22:35.376Z,27.90
2018-07-25T11:25:03.417Z,28.30
2018-07-25T11:27:31.536Z,28.40
2018-07-25T11:29:59.449Z,28.30
2018-07-25T11:32:27.001Z,28.10
2018-07-25T11:34:54.880Z,27.90
2018-07-25T11:37:22.388Z,27.80
2018-07-25T11:39:49.888Z,27.70
2018-07-25T11:42:17.872Z,27.80
2018-07-25T11:44:45.924Z,27.70
2018-07-25T11:47:13.457Z,27.80
2018-07-25T11:49:41.328Z,27.90
2018-07-25T11:52:08.837Z,28.20
2018-07-25T11:54:36.987Z,28.50
2018-07-25T11:57:04.603Z,28.50
2018-07-25T11:59:32.117Z,28.40
2018-07-25T12:01:59.971Z,28.30
2018-07-25T12:04:27.995Z,28.30
2018-07-25T12:06:55.547Z,28.60
2018-07-25T12:09:23.083Z,28.70
2018-07-25T12:11:50.648Z,28.70
2018-07-25T12:14:19.122Z,28.70
2018-07-25T12:16:46.699Z,28.80
2018-07-25T12:19:14.640Z,28.90
2018-07-25T12:21:43.368Z,28.70
2018-07-25T12:24:10.888Z,28.80
2018-07-25T12:26:39.008Z,28.80
2018-07-25T12:29:07.129Z,28.90
2018-07-25T12:31:34.999Z,29.00
2018-07-25T12:34:02.602Z,29.00
2018-07-25T12:36:30.127Z,29.10
2018-07-25T12:38:58.083Z,29.00
2018-07-25T12:41:25.618Z,29.10
2018-07-25T12:43:53.753Z,29.10
2018-07-25T12:46:21.268Z,29.30
2018-07-25T12:48:49.176Z,29.40
2018-07-25T12:51:17.119Z,29.40
2018-07-25T12:53:44.757Z,29.50
2018-07-25T12:56:12.396Z,29.50
2018-07-25T12:58:40.289Z,29.60
2018-07-25T13:01:08.871Z,29.60
2018-07-25T13:03:36.603Z,29.70
2018-07-25T13:06:04.938Z,29.80
2018-07-25T13:08:32.479Z,29.90
2018-07-25T13:11:00.937Z,30.00
2018-07-25T13:13:29.135Z,30.00
2018-07-25T13:15:56.805Z,29.90
2018-07-25T13:18:25.372Z,30.10
2018-07-25T13:20:52.962Z,30.20
2018-07-25T13:23:20.808Z,30.30
2018-07-25T13:25:49.537Z,30.40
2018-07-25T13:28:17.981Z,30.40
2018-07-25T13:30:45.495Z,30.60
2018-07-25T13:33:13.128Z,30.70
2018-07-25T13:35:41.456Z,30.70
2018-07-25T13:38:09.009Z,30.60
2018-07-25T13:40:36.676Z,30.60
2018-07-25T13:43:04.603Z,30.60
2018-07-25T13:45:32.785Z,30.60
2018-07-25T13:48:00.478Z,30.60
2018-07-25T13:52:55.632Z,30.60
2018-07-25T13:55:23.176Z,30.60
2018-07-25T13:57:51.474Z,30.60
2018-07-25T14:00:19.044Z,30.80
2018-07-25T14:02:46.580Z,31.20
2018-07-25T14:05:14.799Z,32.00
2018-07-25T14:07:42.339Z,32.70
2018-07-25T14:10:09.865Z,33.20
2018-07-25T14:12:37.919Z,33.00
2018-07-25T14:15:05.912Z,33.10
2018-07-25T14:17:33.937Z,33.90
2018-07-25T14:20:01.467Z,32.90
2018-07-25T14:22:29.408Z,33.40
2018-07-25T14:24:57.194Z,33.90
2018-07-25T14:27:25.432Z,34.10
2018-07-25T14:29:53.555Z,34.50
2018-07-25T14:32:21.212Z,34.90
2018-07-25T14:34:49.116Z,35.10
2018-07-25T14:37:16.624Z,35.70
2018-07-25T14:39:44.690Z,34.60
2018-07-25T14:42:12.592Z,34.00
2018-07-25T14:44:40.559Z,34.50
2018-07-25T14:47:08.877Z,33.60
2018-07-25T14:49:36.360Z,33.50
2018-07-25T14:52:04.648Z,32.90
2018-07-25T14:54:32.635Z,32.30
2018-07-25T14:57:00.650Z,31.70
2018-07-25T14:59:28.142Z,30.90
2018-07-25T15:01:55.667Z,30.30
2018-07-25T15:04:23.215Z,30.10
2018-07-25T15:06:50.763Z,29.50
2018-07-25T15:09:18.352Z,29.10
2018-07-25T15:11:45.976Z,28.40
2018-07-25T15:14:13.888Z,27.90
2018-07-25T15:16:42.244Z,27.60
2018-07-25T15:19:10.313Z,27.20
2018-07-25T15:21:38.232Z,27.10
2018-07-25T15:24:06.864Z,26.80
2018-07-25T15:26:34.857Z,26.00
2018-07-25T15:29:03.795Z,25.10
2018-07-25T15:31:31.711Z,24.60
2018-07-25T15:33:59.845Z,24.20
2018-07-25T15:36:40.846Z,23.90
2018-07-25T15:39:12.697Z,23.80
2018-07-25T15:41:41.156Z,23.50
2018-07-25T15:44:09.556Z,23.40
2018-07-25T15:46:37.167Z,23.30
2018-07-25T15:49:05.080Z,23.20
2018-07-25T15:51:32.705Z,23.10
2018-07-25T15:56:28.084Z,23.00
2018-07-25T15:58:55.771Z,22.90
2018-07-25T16:01:23.952Z,22.80
2018-07-25T16:03:52.876Z,22.80
2018-07-25T16:06:21.560Z,22.70
2018-07-25T16:08:50.043Z,22.60
2018-07-25T16:11:18.350Z,22.60
2018-07-25T16:13:47.008Z,22.50
2018-07-25T16:16:15.544Z,22.60
2018-07-25T16:18:44.774Z,22.50
2018-07-25T16:23:41.398Z,22.40
2018-07-25T16:26:10.139Z,22.30
2018-07-25T16:28:38.643Z,22.30
2018-07-25T16:31:07.696Z,22.50
2018-07-25T16:33:35.755Z,22.50
2018-07-25T16:36:04.375Z,22.50
2018-07-25T16:38:34.156Z,22.50
2018-07-25T16:41:01.848Z,22.50
2018-07-25T16:43:30.310Z,22.50
2018-07-25T16:45:58.213Z,22.70
2018-07-25T16:48:26.131Z,22.70
2018-07-25T16:50:54.208Z,22.70
2018-07-25T16:53:23.512Z,22.90
2018-07-25T16:55:51.960Z,23.00
2018-07-25T16:58:20.170Z,23.20
2018-07-25T17:00:47.914Z,23.80
2018-07-25T17:03:15.737Z,24.10
2018-07-25T17:05:44.188Z,24.40
2018-07-25T17:08:12.659Z,24.40
2018-07-25T17:10:41.099Z,24.20
2018-07-25T17:13:09.480Z,23.90
2018-07-25T17:15:38.605Z,23.60
2018-07-25T17:18:07.052Z,23.50
2018-07-25T17:20:35.407Z,23.40
2018-07-25T17:23:05.240Z,23.30
2018-07-25T17:25:33.599Z,23.30
2018-07-25T17:28:02.030Z,23.20
2018-07-25T17:30:30.206Z,23.10
2018-07-25T17:32:58.139Z,23.00
2018-07-25T17:35:26.873Z,22.90
2018-07-25T17:37:54.449Z,22.90
2018-07-25T17:40:21.993Z,22.80
2018-07-25T17:42:49.619Z,22.70
2018-07-25T17:45:17.554Z,22.50
2018-07-25T17:47:45.784Z,22.40
2018-07-25T17:50:13.315Z,22.40
2018-07-25T17:52:41.221Z,22.20
2018-07-25T17:55:08.780Z,22.10
2018-07-25T17:57:37.504Z,22.00
2018-07-25T18:00:07.730Z,21.90
2018-07-25T18:02:35.490Z,21.90
2018-07-25T18:05:03.398Z,21.70
2018-07-25T18:07:31.741Z,21.70
2018-07-25T18:09:59.953Z,21.60
2018-07-25T18:12:28.835Z,21.50
2018-07-25T18:14:57.389Z,21.40
2018-07-25T18:17:26.102Z,21.40
2018-07-25T18:19:54.078Z,21.30
2018-07-25T18:22:22.643Z,21.30
2018-07-25T18:24:50.643Z,21.20
2018-07-25T18:27:19.535Z,21.20
2018-07-25T18:29:48.552Z,21.20
2018-07-25T18:32:17.054Z,21.20
2018-07-25T18:34:45.382Z,21.10
2018-07-25T18:37:14.193Z,21.00
2018-07-25T18:39:42.882Z,21.00
2018-07-25T18:42:10.820Z,20.90
2018-07-25T18:44:39.342Z,20.90
2018-07-25T18:47:09.049Z,20.90
2018-07-25T18:49:37.232Z,20.80
2018-07-25T18:52:05.534Z,20.80
2018-07-25T18:54:33.422Z,20.90
2018-07-25T19:01:57.014Z,20.80
2018-07-25T19:04:25.681Z,20.80
2018-07-25T19:06:54.055Z,20.80
2018-07-25T19:09:22.747Z,20.70
2018-07-25T19:11:51.758Z,20.70
2018-07-25T19:14:27.432Z,20.70
2018-07-25T19:16:55.283Z,20.60
2018-07-25T19:19:24.147Z,20.50
2018-07-25T19:21:53.097Z,20.50
2018-07-25T19:24:21.865Z,20.50
2018-07-25T19:26:50.633Z,20.40
2018-07-25T19:29:18.596Z,20.40
2018-07-25T19:31:47.115Z,20.30
2018-07-25T19:34:14.623Z,20.20
2018-07-25T19:36:42.826Z,20.10
2018-07-25T19:39:11.056Z,20.10
2018-07-25T19:41:38.658Z,20.00
2018-07-25T19:44:06.657Z,20.00
2018-07-25T19:46:34.267Z,20.00
2018-07-25T19:49:01.817Z,19.90
2018-07-25T19:51:29.494Z,19.90
2018-07-25T19:53:57.008Z,19.90
2018-07-25T19:56:24.598Z,19.90
2018-07-25T19:58:52.143Z,19.80
2018-07-25T20:01:20.403Z,19.80
2018-07-25T20:06:15.979Z,19.80
2018-07-25T20:08:43.953Z,19.80
2018-07-25T20:11:11.839Z,19.70
2018-07-25T20:13:45.304Z,19.70
2018-07-25T20:16:12.818Z,19.70
2018-07-25T20:18:41.056Z,19.60
2018-07-25T20:21:09.024Z,19.60
2018-07-25T20:23:37.015Z,19.60
2018-07-25T20:26:05.211Z,19.50
2018-07-25T20:28:33.083Z,19.60
2018-07-25T20:31:00.947Z,19.50
2018-07-25T20:33:28.475Z,19.50
2018-07-25T20:35:56.096Z,19.50
2018-07-25T20:38:24.382Z,19.50
2018-07-25T20:40:52.604Z,19.50
2018-07-25T20:43:20.609Z,19.50
2018-07-25T20:45:48.680Z,19.50
2018-07-25T20:48:16.200Z,19.40
2018-07-25T20:50:43.792Z,19.50
2018-07-25T20:53:11.439Z,19.50
2018-07-25T20:55:39.003Z,19.50
2018-07-25T20:58:06.712Z,19.50
2018-07-25T21:00:35.722Z,19.50
2018-07-25T21:03:05.002Z,19.50
2018-07-25T21:05:34.699Z,19.50
2018-07-25T21:08:02.981Z,19.40
2018-07-25T21:10:31.920Z,19.40
2018-07-25T21:12:59.787Z,19.40
2018-07-25T21:15:27.304Z,19.40
2018-07-25T21:17:54.871Z,19.40
2018-07-25T21:20:23.347Z,19.40
2018-07-25T21:22:52.223Z,19.30
2018-07-25T21:25:20.479Z,19.30
2018-07-25T21:27:48.703Z,19.30
2018-07-25T21:30:16.611Z,19.40
2018-07-25T21:32:44.279Z,19.30
2018-07-25T21:35:12.795Z,19.30
2018-07-25T21:37:40.817Z,19.30
2018-07-25T21:40:08.370Z,19.30
2018-07-25T21:42:35.866Z,19.20
2018-07-25T21:45:05.345Z,19.20
2018-07-25T21:47:32.850Z,19.30
2018-07-25T21:50:01.057Z,19.30
2018-07-25T21:52:28.590Z,19.20
2018-07-25T21:54:56.547Z,19.30
2018-07-25T21:57:24.488Z,19.30
2018-07-25T22:02:19.840Z,19.40
2018-07-25T22:04:47.875Z,19.50
2018-07-25T22:07:16.632Z,19.50
2018-07-25T22:09:44.699Z,19.40
2018-07-25T22:12:12.699Z,19.50
2018-07-25T22:14:40.195Z,19.50
2018-07-25T22:17:08.272Z,19.40
2018-07-25T22:19:35.801Z,19.30
2018-07-25T22:22:04.080Z,19.30
2018-07-25T22:24:31.922Z,19.20
2018-07-25T22:26:59.789Z,19.10
2018-07-25T22:29:27.736Z,18.90
2018-07-25T22:31:55.283Z,18.80
2018-07-25T22:34:22.824Z,18.90
2018-07-25T22:36:50.747Z,18.90
2018-07-25T22:39:18.607Z,18.90
2018-07-25T22:41:46.811Z,19.00
2018-07-25T22:44:14.856Z,19.00
2018-07-25T22:49:10.232Z,18.90
2018-07-25T22:51:37.769Z,18.90
2018-07-25T22:54:05.867Z,18.90
2018-07-25T22:56:33.392Z,18.90
2018-07-25T22:59:00.912Z,19.00
2018-07-25T23:01:28.874Z,18.90
2018-07-25T23:03:57.832Z,18.90
2018-07-25T23:06:25.336Z,18.90
2018-07-25T23:08:52.839Z,18.90
2018-07-25T23:11:20.382Z,18.90
2018-07-25T23:13:49.062Z,18.90
2018-07-25T23:16:17.131Z,18.90
2018-07-25T23:18:45.571Z,19.00
2018-07-25T23:21:14.067Z,19.00
2018-07-25T23:23:42.962Z,19.00
2018-07-25T23:26:11.256Z,18.80
2018-07-25T23:28:39.303Z,18.80
2018-07-25T23:31:06.808Z,18.80
2018-07-25T23:33:34.753Z,18.80
2018-07-25T23:36:02.275Z,18.70
2018-07-25T23:38:30.602Z,18.70
2018-07-25T23:40:58.873Z,18.60
2018-07-25T23:43:26.887Z,18.60
2018-07-25T23:45:54.410Z,18.50
2018-07-25T23:48:22.235Z,18.50
2018-07-25T23:50:49.775Z,18.50
2018-07-25T23:53:17.744Z,18.50
2018-07-25T23:55:45.261Z,18.40
2018-07-25T23:58:12.775Z,18.50
